sensor_id;sensor_type;location;lat;lon;timestamp;pressure;altitude;pressure_sealevel;temperature;humidity
73105;BME280;61296;50.526;30.792;2023-07-24T00:02:18;99348.25;;;17.73;65.91
73105;BME280;61296;50.526;30.792;2023-07-24T00:17:37;99305.41;;;17.27;67.67
73105;BME280;61296;50.526;30.792;2023-07-24T00:32:57;99286.94;;;17.17;67.61
73105;BME280;61296;50.526;30.792;2023-07-24T00:48:16;99277.88;;;17.13;67.38
73105;BME280;61296;50.526;30.792;2023-07-24T01:03:39;99294.75;;;17.02;69.76
73105;BME280;61296;50.526;30.792;2023-07-24T01:18:58;99322.19;;;17.00;70.34
73105;BME280;61296;50.526;30.792;2023-07-24T01:34:20;99322.47;;;16.82;71.02
73105;BME280;61296;50.526;30.792;2023-07-24T01:49:39;99258.72;;;16.25;71.28
73105;BME280;61296;50.526;30.792;2023-07-24T02:04:58;99259.25;;;15.89;71.95
73105;BME280;61296;50.526;30.792;2023-07-24T02:20:20;99394.28;;;16.53;71.50
73105;BME280;61296;50.526;30.792;2023-07-24T02:35:40;99361.88;;;16.47;71.69
73105;BME280;61296;50.526;30.792;2023-07-24T02:50:59;99301.09;;;16.29;71.18
73105;BME280;61296;50.526;30.792;2023-07-24T03:06:19;99310.91;;;17.07;69.04
73105;BME280;61296;50.526;30.792;2023-07-24T03:21:38;99379.88;;;17.99;68.49
73105;BME280;61296;50.526;30.792;2023-07-24T03:36:59;99365.09;;;18.02;69.48
73105;BME280;61296;50.526;30.792;2023-07-24T03:52:18;99343.19;;;18.24;69.20
73105;BME280;61296;50.526;30.792;2023-07-24T04:07:38;99332.50;;;18.55;67.22
73105;BME280;61296;50.526;30.792;2023-07-24T04:22:58;99351.16;;;19.07;68.39
73105;BME280;61296;50.526;30.792;2023-07-24T04:38:17;99311.72;;;19.66;65.61
73105;BME280;61296;50.526;30.792;2023-07-24T04:53:37;99298.75;;;20.27;58.85
73105;BME280;61296;50.526;30.792;2023-07-24T05:08:57;99313.41;;;21.03;57.21
73105;BME280;61296;50.526;30.792;2023-07-24T05:24:19;99264.28;;;21.28;55.05
73105;BME280;61296;50.526;30.792;2023-07-24T05:39:38;99334.56;;;22.27;54.20
73105;BME280;61296;50.526;30.792;2023-07-24T05:54:57;99265.63;;;22.20;52.68
73105;BME280;61296;50.526;30.792;2023-07-24T06:10:17;99274.78;;;22.79;50.87
73105;BME280;61296;50.526;30.792;2023-07-24T06:25:36;99259.28;;;23.15;49.84
73105;BME280;61296;50.526;30.792;2023-07-24T06:40:56;99193.81;;;23.09;48.15
73105;BME280;61296;50.526;30.792;2023-07-24T06:56:15;99277.38;;;24.11;48.00
73105;BME280;61296;50.526;30.792;2023-07-24T07:11:35;99213.47;;;24.54;47.11
73105;BME280;61296;50.526;30.792;2023-07-24T07:26:54;99196.63;;;24.92;46.26
73105;BME280;61296;50.526;30.792;2023-07-24T07:42:13;99155.66;;;25.15;43.87
73105;BME280;61296;50.526;30.792;2023-07-24T07:57:36;99168.56;;;25.37;41.82
73105;BME280;61296;50.526;30.792;2023-07-24T08:12:55;99249.97;;;26.43;41.69
73105;BME280;61296;50.526;30.792;2023-07-24T08:28:15;99214.38;;;26.31;41.49
73105;BME280;61296;50.526;30.792;2023-07-24T08:43:35;99192.03;;;26.42;41.21
73105;BME280;61296;50.526;30.792;2023-07-24T08:58:55;99204.28;;;27.21;40.34
73105;BME280;61296;50.526;30.792;2023-07-24T09:14:29;99159.78;;;26.29;43.08
73105;BME280;61296;50.526;30.792;2023-07-24T09:29:51;99136.69;;;26.45;42.39
73105;BME280;61296;50.526;30.792;2023-07-24T09:45:26;99098.94;;;26.37;42.73
73105;BME280;61296;50.526;30.792;2023-07-24T10:00:47;99126.47;;;26.48;43.75
73105;BME280;61296;50.526;30.792;2023-07-24T10:16:07;99144.13;;;26.89;43.02
73105;BME280;61296;50.526;30.792;2023-07-24T10:31:27;99074.34;;;26.37;43.45
73105;BME280;61296;50.526;30.792;2023-07-24T10:46:48;99145.59;;;27.30;43.12
73105;BME280;61296;50.526;30.792;2023-07-24T11:02:07;99046.06;;;27.04;42.25
73105;BME280;61296;50.526;30.792;2023-07-24T11:17:35;99018.72;;;26.90;42.06
73105;BME280;61296;50.526;30.792;2023-07-24T11:32:57;99064.09;;;27.49;42.37
73105;BME280;61296;50.526;30.792;2023-07-24T11:48:23;99043.25;;;27.78;38.70
73105;BME280;61296;50.526;30.792;2023-07-24T12:03:46;99030.97;;;27.87;40.61
73105;BME280;61296;50.526;30.792;2023-07-24T12:19:07;99022.81;;;27.95;40.45
73105;BME280;61296;50.526;30.792;2023-07-24T12:34:27;98955.97;;;27.92;38.60
73105;BME280;61296;50.526;30.792;2023-07-24T12:49:46;99032.97;;;28.29;38.17
73105;BME280;61296;50.526;30.792;2023-07-24T13:05:06;99013.25;;;28.46;37.03
73105;BME280;61296;50.526;30.792;2023-07-24T13:20:25;98942.72;;;28.14;37.78
73105;BME280;61296;50.526;30.792;2023-07-24T13:35:45;98928.94;;;27.68;37.64
73105;BME280;61296;50.526;30.792;2023-07-24T13:51:08;98921.41;;;27.59;38.18
73105;BME280;61296;50.526;30.792;2023-07-24T14:06:28;98922.31;;;27.88;37.52
73105;BME280;61296;50.526;30.792;2023-07-24T14:21:47;98910.31;;;28.10;36.73
73105;BME280;61296;50.526;30.792;2023-07-24T14:37:07;98843.41;;;27.68;38.33
73105;BME280;61296;50.526;30.792;2023-07-24T14:52:26;98850.38;;;27.72;37.20
73105;BME280;61296;50.526;30.792;2023-07-24T15:07:46;98836.00;;;27.81;37.27
73105;BME280;61296;50.526;30.792;2023-07-24T15:23:07;98808.78;;;27.73;37.93
73105;BME280;61296;50.526;30.792;2023-07-24T15:38:27;98836.50;;;27.80;39.04
73105;BME280;61296;50.526;30.792;2023-07-24T15:53:47;98849.31;;;27.70;39.23
73105;BME280;61296;50.526;30.792;2023-07-24T16:09:07;98793.66;;;27.11;39.53
73105;BME280;61296;50.526;30.792;2023-07-24T16:24:28;98798.84;;;26.81;40.60
73105;BME280;61296;50.526;30.792;2023-07-24T16:39:47;98800.84;;;26.74;40.41
73105;BME280;61296;50.526;30.792;2023-07-24T16:55:07;98831.44;;;26.87;40.84
73105;BME280;61296;50.526;30.792;2023-07-24T17:10:39;98770.81;;;26.34;42.16
73105;BME280;61296;50.526;30.792;2023-07-24T17:25:59;98780.97;;;26.21;43.56
73105;BME280;61296;50.526;30.792;2023-07-24T17:41:18;98750.34;;;25.50;44.36
73105;BME280;61296;50.526;30.792;2023-07-24T17:56:38;98817.91;;;25.71;45.33
73105;BME280;61296;50.526;30.792;2023-07-24T18:11:58;98783.72;;;24.96;46.83
73105;BME280;61296;50.526;30.792;2023-07-24T18:27:19;98886.97;;;25.25;47.78
73105;BME280;61296;50.526;30.792;2023-07-24T18:42:38;98820.00;;;24.59;48.97
73105;BME280;61296;50.526;30.792;2023-07-24T18:57:58;98827.91;;;24.40;50.30
73105;BME280;61296;50.526;30.792;2023-07-24T19:13:17;98843.13;;;24.34;51.49
73105;BME280;61296;50.526;30.792;2023-07-24T19:28:38;98847.28;;;24.09;52.64
73105;BME280;61296;50.526;30.792;2023-07-24T19:43:58;98756.31;;;23.47;52.87
73105;BME280;61296;50.526;30.792;2023-07-24T19:59:17;98817.16;;;23.80;53.56
73105;BME280;61296;50.526;30.792;2023-07-24T20:14:37;98755.97;;;23.30;53.89
73105;BME280;61296;50.526;30.792;2023-07-24T20:29:56;98796.66;;;23.50;54.39
73105;BME280;61296;50.526;30.792;2023-07-24T20:45:15;98724.47;;;22.97;55.25
73105;BME280;61296;50.526;30.792;2023-07-24T21:00:35;98709.47;;;22.85;55.27
73105;BME280;61296;50.526;30.792;2023-07-24T21:15:54;98719.56;;;22.83;55.53
73105;BME280;61296;50.526;30.792;2023-07-24T21:31:14;98754.34;;;23.00;55.46
73105;BME280;61296;50.526;30.792;2023-07-24T21:46:34;98844.91;;;22.91;57.19
73105;BME280;61296;50.526;30.792;2023-07-24T22:01:53;98717.31;;;22.15;58.62
73105;BME280;61296;50.526;30.792;2023-07-24T22:17:12;98747.88;;;22.61;58.06
73105;BME280;61296;50.526;30.792;2023-07-24T22:32:32;98716.41;;;22.42;57.88
73105;BME280;61296;50.526;30.792;2023-07-24T22:47:52;98677.03;;;22.12;59.29
73105;BME280;61296;50.526;30.792;2023-07-24T23:03:11;98703.97;;;22.01;59.44
73105;BME280;61296;50.526;30.792;2023-07-24T23:18:31;98721.56;;;22.01;59.08
73105;BME280;61296;50.526;30.792;2023-07-24T23:33:51;98675.81;;;21.62;60.19
73105;BME280;61296;50.526;30.792;2023-07-24T23:49:11;98672.94;;;21.38;60.26
